Terminal Aerodrome Forecast
Issued by NWS

Home | Current Version | Previous Version | Text Only | Print | Product List | Glossary On
Versions: 1 2 3 4 5 6 7 8 9 10 11 12 13
815
FTUS46 KPDT 111135
TAFALW
TAF
KALW 111135Z 1112/1212 07004KT P6SM BKN080 OVC120
     FM111400 VRB04KT P6SM OVC100
     FM120300 12005KT P6SM OVC080=

USA.gov is the U.S. government's official web portal to all federal, state and local government web resources and services.